sensor_id;sensor_type;location;lat;lon;timestamp;pressure;altitude;pressure_sealevel;temperature;humidity
12536;BME280;6334;48.696;2.114;2022-11-04T00:02:02;98633.56;;;10.46;100.00
12536;BME280;6334;48.696;2.114;2022-11-04T00:04:33;98623.08;;;10.41;100.00
12536;BME280;6334;48.696;2.114;2022-11-04T00:07:03;98623.27;;;10.56;100.00
12536;BME280;6334;48.696;2.114;2022-11-04T00:09:34;98610.96;;;10.47;100.00
12536;BME280;6334;48.696;2.114;2022-11-04T00:12:04;98610.83;;;10.50;100.00
12536;BME280;6334;48.696;2.114;2022-11-04T00:14:53;98601.97;;;10.47;100.00
12536;BME280;6334;48.696;2.114;2022-11-04T00:17:23;98596.14;;;10.32;100.00
12536;BME280;6334;48.696;2.114;2022-11-04T00:19:54;98548.44;;;10.12;100.00
12536;BME280;6334;48.696;2.114;2022-11-04T00:22:46;98589.68;;;10.48;100.00
12536;BME280;6334;48.696;2.114;2022-11-04T00:25:31;98590.16;;;10.43;100.00
12536;BME280;6334;48.696;2.114;2022-11-04T00:28:20;98585.02;;;10.46;100.00
12536;BME280;6334;48.696;2.114;2022-11-04T00:31:08;98588.48;;;10.32;100.00
12536;BME280;6334;48.696;2.114;2022-11-04T00:33:57;98586.73;;;10.54;100.00
12536;BME280;6334;48.696;2.114;2022-11-04T00:36:27;98583.33;;;10.47;100.00
12536;BME280;6334;48.696;2.114;2022-11-04T00:38:58;98528.09;;;10.15;100.00
12536;BME280;6334;48.696;2.114;2022-11-04T00:41:28;98578.05;;;10.48;100.00
12536;BME280;6334;48.696;2.114;2022-11-04T00:44:02;98575.17;;;10.33;100.00
12536;BME280;6334;48.696;2.114;2022-11-04T00:46:30;98576.41;;;10.38;100.00
12536;BME280;6334;48.696;2.114;2022-11-04T00:49:00;98575.99;;;10.49;100.00
12536;BME280;6334;48.696;2.114;2022-11-04T00:51:30;98576.91;;;10.55;100.00
12536;BME280;6334;48.696;2.114;2022-11-04T00:54:01;98569.04;;;10.51;100.00
12536;BME280;6334;48.696;2.114;2022-11-04T00:56:31;98569.73;;;10.52;100.00
12536;BME280;6334;48.696;2.114;2022-11-04T00:59:02;98560.44;;;10.42;100.00
12536;BME280;6334;48.696;2.114;2022-11-04T01:01:32;98564.41;;;10.68;100.00
12536;BME280;6334;48.696;2.114;2022-11-04T01:04:02;98563.05;;;10.54;100.00
12536;BME280;6334;48.696;2.114;2022-11-04T01:06:33;98557.38;;;10.53;100.00
12536;BME280;6334;48.696;2.114;2022-11-04T01:09:05;98560.31;;;10.48;100.00
12536;BME280;6334;48.696;2.114;2022-11-04T01:11:37;98563.16;;;10.33;100.00
12536;BME280;6334;48.696;2.114;2022-11-04T01:14:07;98487.49;;;9.97;100.00
12536;BME280;6334;48.696;2.114;2022-11-04T01:16:38;98564.36;;;10.35;100.00
12536;BME280;6334;48.696;2.114;2022-11-04T01:19:09;98565.92;;;10.54;100.00
12536;BME280;6334;48.696;2.114;2022-11-04T01:21:39;98516.79;;;10.19;100.00
12536;BME280;6334;48.696;2.114;2022-11-04T01:24:09;98560.29;;;10.35;100.00
12536;BME280;6334;48.696;2.114;2022-11-04T01:26:40;98557.81;;;10.53;100.00
12536;BME280;6334;48.696;2.114;2022-11-04T01:29:10;98554.75;;;10.51;100.00
12536;BME280;6334;48.696;2.114;2022-11-04T01:31:41;98548.97;;;10.48;100.00
12536;BME280;6334;48.696;2.114;2022-11-04T01:34:11;98548.17;;;10.42;100.00
12536;BME280;6334;48.696;2.114;2022-11-04T01:36:41;98426.94;;;9.81;100.00
12536;BME280;6334;48.696;2.114;2022-11-04T01:39:12;98475.10;;;10.03;100.00
12536;BME280;6334;48.696;2.114;2022-11-04T01:41:42;98544.98;;;10.38;100.00
12536;BME280;6334;48.696;2.114;2022-11-04T01:47:26;98485.53;;;10.20;100.00
12536;BME280;6334;48.696;2.114;2022-11-04T01:49:59;98525.48;;;10.43;100.00
12536;BME280;6334;48.696;2.114;2022-11-04T01:52:28;98466.76;;;10.23;100.00
12536;BME280;6334;48.696;2.114;2022-11-04T01:54:56;98510.10;;;10.69;100.00
12536;BME280;6334;48.696;2.114;2022-11-04T01:57:30;98505.81;;;10.42;100.00
12536;BME280;6334;48.696;2.114;2022-11-04T01:59:57;98517.29;;;10.57;100.00
12536;BME280;6334;48.696;2.114;2022-11-04T02:02:27;98528.12;;;10.45;100.00
12536;BME280;6334;48.696;2.114;2022-11-04T02:04:57;98522.83;;;10.52;100.00
12536;BME280;6334;48.696;2.114;2022-11-04T02:07:28;98506.08;;;10.68;100.00
12536;BME280;6334;48.696;2.114;2022-11-04T02:09:58;98514.30;;;10.63;100.00
12536;BME280;6334;48.696;2.114;2022-11-04T02:12:28;98513.03;;;10.62;100.00
12536;BME280;6334;48.696;2.114;2022-11-04T02:15:22;98433.38;;;10.14;100.00
12536;BME280;6334;48.696;2.114;2022-11-04T02:23:58;98520.42;;;10.59;100.00
12536;BME280;6334;48.696;2.114;2022-11-04T02:32:23;98516.44;;;10.67;100.00
12536;BME280;6334;48.696;2.114;2022-11-04T02:40:35;98517.21;;;10.45;100.00
12536;BME280;6334;48.696;2.114;2022-11-04T02:43:26;98513.16;;;10.79;100.00
12536;BME280;6334;48.696;2.114;2022-11-04T02:46:11;98508.61;;;10.75;100.00
12536;BME280;6334;48.696;2.114;2022-11-04T02:48:38;98502.17;;;10.70;100.00
12536;BME280;6334;48.696;2.114;2022-11-04T02:51:49;98492.91;;;10.78;100.00
12536;BME280;6334;48.696;2.114;2022-11-04T02:54:03;98483.16;;;10.63;100.00
12536;BME280;6334;48.696;2.114;2022-11-04T02:56:31;98485.13;;;10.62;100.00
12536;BME280;6334;48.696;2.114;2022-11-04T02:59:08;98486.58;;;10.56;100.00
12536;BME280;6334;48.696;2.114;2022-11-04T03:01:36;98486.11;;;10.73;100.00
12536;BME280;6334;48.696;2.114;2022-11-04T03:04:08;98483.31;;;10.58;100.00
12536;BME280;6334;48.696;2.114;2022-11-04T03:06:36;98473.86;;;10.68;100.00
12536;BME280;6334;48.696;2.114;2022-11-04T03:09:06;98471.18;;;10.40;100.00
12536;BME280;6334;48.696;2.114;2022-11-04T03:11:37;98466.33;;;10.62;100.00
12536;BME280;6334;48.696;2.114;2022-11-04T03:14:09;98463.66;;;10.37;100.00
12536;BME280;6334;48.696;2.114;2022-11-04T03:16:44;98469.34;;;10.49;100.00
12536;BME280;6334;48.696;2.114;2022-11-04T03:19:15;98464.72;;;10.54;100.00
12536;BME280;6334;48.696;2.114;2022-11-04T03:21:50;98466.36;;;10.54;100.00
12536;BME280;6334;48.696;2.114;2022-11-04T03:24:18;98462.50;;;10.58;100.00
12536;BME280;6334;48.696;2.114;2022-11-04T03:26:50;98454.22;;;10.60;100.00
12536;BME280;6334;48.696;2.114;2022-11-04T03:29:24;98457.96;;;10.85;100.00
12536;BME280;6334;48.696;2.114;2022-11-04T03:34:31;98450.92;;;10.60;100.00
12536;BME280;6334;48.696;2.114;2022-11-04T03:37:01;98454.91;;;10.54;100.00
12536;BME280;6334;48.696;2.114;2022-11-04T03:39:32;98452.31;;;10.47;100.00
12536;BME280;6334;48.696;2.114;2022-11-04T03:42:05;98448.59;;;10.67;100.00
12536;BME280;6334;48.696;2.114;2022-11-04T03:44:35;98449.91;;;10.47;100.00
12536;BME280;6334;48.696;2.114;2022-11-04T03:47:05;98449.09;;;10.55;100.00
12536;BME280;6334;48.696;2.114;2022-11-04T03:49:36;98436.40;;;10.68;100.00
12536;BME280;6334;48.696;2.114;2022-11-04T03:52:06;98441.62;;;10.59;100.00
12536;BME280;6334;48.696;2.114;2022-11-04T03:54:37;98426.95;;;10.51;100.00
12536;BME280;6334;48.696;2.114;2022-11-04T04:05:16;98439.39;;;10.57;100.00
12536;BME280;6334;48.696;2.114;2022-11-04T04:07:47;98447.20;;;10.67;100.00
12536;BME280;6334;48.696;2.114;2022-11-04T04:10:32;98454.81;;;10.62;100.00
12536;BME280;6334;48.696;2.114;2022-11-04T04:18:18;98455.86;;;10.40;100.00
12536;BME280;6334;48.696;2.114;2022-11-04T04:20:48;98456.40;;;10.54;100.00
12536;BME280;6334;48.696;2.114;2022-11-04T04:23:20;98456.86;;;10.28;100.00
12536;BME280;6334;48.696;2.114;2022-11-04T04:26:07;98464.05;;;10.13;100.00
12536;BME280;6334;48.696;2.114;2022-11-04T04:28:55;98464.20;;;10.42;100.00
12536;BME280;6334;48.696;2.114;2022-11-04T04:31:25;98458.58;;;10.30;100.00
12536;BME280;6334;48.696;2.114;2022-11-04T04:34:15;98451.88;;;10.15;100.00
12536;BME280;6334;48.696;2.114;2022-11-04T04:36:47;98449.88;;;10.14;100.00
12536;BME280;6334;48.696;2.114;2022-11-04T04:39:16;98456.73;;;10.16;100.00
12536;BME280;6334;48.696;2.114;2022-11-04T04:42:04;98458.99;;;10.10;100.00
12536;BME280;6334;48.696;2.114;2022-11-04T04:44:52;98470.41;;;10.29;100.00
12536;BME280;6334;48.696;2.114;2022-11-04T04:47:28;98467.89;;;10.16;100.00
12536;BME280;6334;48.696;2.114;2022-11-04T04:49:57;98466.44;;;10.18;100.00
12536;BME280;6334;48.696;2.114;2022-11-04T04:52:30;98461.91;;;10.27;100.00
12536;BME280;6334;48.696;2.114;2022-11-04T04:55:00;98461.55;;;10.24;100.00
12536;BME280;6334;48.696;2.114;2022-11-04T04:57:30;98456.03;;;10.35;100.00
12536;BME280;6334;48.696;2.114;2022-11-04T05:00:01;98462.23;;;10.39;100.00
12536;BME280;6334;48.696;2.114;2022-11-04T05:02:31;98463.20;;;10.19;100.00
12536;BME280;6334;48.696;2.114;2022-11-04T05:05:02;98460.03;;;10.36;100.00
12536;BME280;6334;48.696;2.114;2022-11-04T05:07:32;98465.95;;;10.37;100.00
12536;BME280;6334;48.696;2.114;2022-11-04T05:10:03;98464.55;;;10.15;100.00
12536;BME280;6334;48.696;2.114;2022-11-04T05:12:35;98468.27;;;10.28;100.00
12536;BME280;6334;48.696;2.114;2022-11-04T05:15:24;98464.28;;;10.05;100.00
12536;BME280;6334;48.696;2.114;2022-11-04T05:17:55;98467.95;;;10.12;100.00
12536;BME280;6334;48.696;2.114;2022-11-04T05:20:27;98472.81;;;10.20;100.00
12536;BME280;6334;48.696;2.114;2022-11-04T05:22:58;98469.82;;;10.11;100.00
12536;BME280;6334;48.696;2.114;2022-11-04T05:25:28;98467.34;;;10.28;100.00
12536;BME280;6334;48.696;2.114;2022-11-04T05:27:59;98468.22;;;10.15;100.00
12536;BME280;6334;48.696;2.114;2022-11-04T05:30:29;98469.33;;;10.27;100.00
12536;BME280;6334;48.696;2.114;2022-11-04T05:32:59;98472.83;;;10.27;100.00
12536;BME280;6334;48.696;2.114;2022-11-04T05:35:30;98474.18;;;10.30;100.00
12536;BME280;6334;48.696;2.114;2022-11-04T05:38:00;98433.16;;;9.94;100.00
12536;BME280;6334;48.696;2.114;2022-11-04T05:40:31;98470.56;;;10.21;100.00
12536;BME280;6334;48.696;2.114;2022-11-04T05:43:01;98467.65;;;10.23;100.00
12536;BME280;6334;48.696;2.114;2022-11-04T05:45:32;98472.79;;;10.12;100.00
12536;BME280;6334;48.696;2.114;2022-11-04T05:48:03;98471.20;;;10.08;100.00
12536;BME280;6334;48.696;2.114;2022-11-04T05:50:33;98467.01;;;10.06;100.00
12536;BME280;6334;48.696;2.114;2022-11-04T05:53:03;98477.39;;;10.36;100.00
12536;BME280;6334;48.696;2.114;2022-11-04T05:55:34;98483.35;;;10.13;100.00
12536;BME280;6334;48.696;2.114;2022-11-04T05:58:04;98487.71;;;10.17;100.00
12536;BME280;6334;48.696;2.114;2022-11-04T06:00:34;98490.13;;;10.11;100.00
12536;BME280;6334;48.696;2.114;2022-11-04T06:03:05;98493.19;;;10.05;100.00
12536;BME280;6334;48.696;2.114;2022-11-04T06:05:35;98503.05;;;10.12;100.00
12536;BME280;6334;48.696;2.114;2022-11-04T06:08:06;98505.19;;;10.05;100.00
12536;BME280;6334;48.696;2.114;2022-11-04T06:10:36;98498.63;;;9.98;100.00
12536;BME280;6334;48.696;2.114;2022-11-04T06:13:12;98510.69;;;10.12;100.00
12536;BME280;6334;48.696;2.114;2022-11-04T06:15:43;98505.44;;;10.21;100.00
12536;BME280;6334;48.696;2.114;2022-11-04T06:18:13;98506.20;;;10.13;100.00
12536;BME280;6334;48.696;2.114;2022-11-04T06:20:44;98500.12;;;10.25;100.00
12536;BME280;6334;48.696;2.114;2022-11-04T06:23:14;98501.44;;;10.27;100.00
12536;BME280;6334;48.696;2.114;2022-11-04T06:25:45;98505.94;;;10.06;100.00
12536;BME280;6334;48.696;2.114;2022-11-04T06:28:15;98506.78;;;10.13;100.00
12536;BME280;6334;48.696;2.114;2022-11-04T06:30:46;98521.16;;;10.04;100.00
12536;BME280;6334;48.696;2.114;2022-11-04T06:33:16;98518.89;;;10.10;100.00
12536;BME280;6334;48.696;2.114;2022-11-04T06:35:47;98521.48;;;10.16;100.00
12536;BME280;6334;48.696;2.114;2022-11-04T06:38:17;98524.50;;;10.10;100.00
12536;BME280;6334;48.696;2.114;2022-11-04T06:40:48;98529.48;;;10.08;100.00
12536;BME280;6334;48.696;2.114;2022-11-04T06:43:18;98530.00;;;10.10;100.00
12536;BME280;6334;48.696;2.114;2022-11-04T06:45:58;98530.39;;;10.08;100.00
12536;BME280;6334;48.696;2.114;2022-11-04T06:48:28;98528.74;;;10.07;100.00
12536;BME280;6334;48.696;2.114;2022-11-04T06:50:58;98535.80;;;10.01;100.00
12536;BME280;6334;48.696;2.114;2022-11-04T06:53:28;98535.93;;;10.19;100.00
12536;BME280;6334;48.696;2.114;2022-11-04T06:56:03;98529.29;;;10.14;100.00
12536;BME280;6334;48.696;2.114;2022-11-04T06:58:33;98529.03;;;10.15;100.00
12536;BME280;6334;48.696;2.114;2022-11-04T07:01:03;98537.06;;;10.00;100.00
12536;BME280;6334;48.696;2.114;2022-11-04T07:03:34;98530.55;;;10.07;100.00
12536;BME280;6334;48.696;2.114;2022-11-04T07:06:07;98538.34;;;10.07;100.00
12536;BME280;6334;48.696;2.114;2022-11-04T07:08:35;98540.24;;;10.01;100.00
12536;BME280;6334;48.696;2.114;2022-11-04T07:11:05;98548.66;;;10.19;100.00
12536;BME280;6334;48.696;2.114;2022-11-04T07:13:36;98483.81;;;9.68;100.00
12536;BME280;6334;48.696;2.114;2022-11-04T07:16:07;98558.33;;;10.08;100.00
12536;BME280;6334;48.696;2.114;2022-11-04T07:18:37;98559.02;;;10.09;100.00
12536;BME280;6334;48.696;2.114;2022-11-04T07:21:08;98558.45;;;10.03;100.00
12536;BME280;6334;48.696;2.114;2022-11-04T07:23:38;98566.78;;;10.08;100.00
12536;BME280;6334;48.696;2.114;2022-11-04T07:26:09;98572.56;;;10.03;100.00
12536;BME280;6334;48.696;2.114;2022-11-04T07:28:39;98578.59;;;10.23;100.00
12536;BME280;6334;48.696;2.114;2022-11-04T07:31:11;98583.54;;;10.24;100.00
12536;BME280;6334;48.696;2.114;2022-11-04T07:33:41;98582.71;;;10.29;100.00
12536;BME280;6334;48.696;2.114;2022-11-04T07:36:11;98563.23;;;9.98;100.00
12536;BME280;6334;48.696;2.114;2022-11-04T07:38:42;98600.64;;;10.34;100.00
12536;BME280;6334;48.696;2.114;2022-11-04T07:41:12;98610.02;;;10.25;100.00
12536;BME280;6334;48.696;2.114;2022-11-04T07:43:46;98608.97;;;10.18;100.00
12536;BME280;6334;48.696;2.114;2022-11-04T07:46:13;98617.93;;;10.39;100.00
12536;BME280;6334;48.696;2.114;2022-11-04T07:48:43;98619.64;;;10.60;100.00
12536;BME280;6334;48.696;2.114;2022-11-04T07:51:15;98625.41;;;10.27;100.00
12536;BME280;6334;48.696;2.114;2022-11-04T07:53:45;98629.59;;;10.33;100.00
12536;BME280;6334;48.696;2.114;2022-11-04T07:56:15;98619.36;;;10.30;100.00
12536;BME280;6334;48.696;2.114;2022-11-04T07:58:46;98636.79;;;10.26;100.00
12536;BME280;6334;48.696;2.114;2022-11-04T08:01:18;98594.65;;;9.84;100.00
12536;BME280;6334;48.696;2.114;2022-11-04T08:03:47;98649.08;;;10.52;100.00
12536;BME280;6334;48.696;2.114;2022-11-04T08:06:18;98658.80;;;10.36;100.00
12536;BME280;6334;48.696;2.114;2022-11-04T08:08:48;98659.92;;;10.30;100.00
12536;BME280;6334;48.696;2.114;2022-11-04T08:11:20;98632.35;;;10.26;100.00
12536;BME280;6334;48.696;2.114;2022-11-04T08:13:52;98643.07;;;10.11;100.00
12536;BME280;6334;48.696;2.114;2022-11-04T08:16:22;98669.30;;;10.22;100.00
12536;BME280;6334;48.696;2.114;2022-11-04T08:18:52;98679.75;;;10.53;100.00
12536;BME280;6334;48.696;2.114;2022-11-04T08:21:23;98681.73;;;10.77;100.00
12536;BME280;6334;48.696;2.114;2022-11-04T08:23:54;98604.39;;;9.89;100.00
12536;BME280;6334;48.696;2.114;2022-11-04T08:26:24;98687.31;;;10.52;100.00
12536;BME280;6334;48.696;2.114;2022-11-04T08:28:54;98689.19;;;10.41;100.00
12536;BME280;6334;48.696;2.114;2022-11-04T08:31:26;98695.13;;;10.46;100.00
12536;BME280;6334;48.696;2.114;2022-11-04T08:33:55;98697.87;;;10.54;100.00
12536;BME280;6334;48.696;2.114;2022-11-04T08:36:26;98702.02;;;10.57;100.00
12536;BME280;6334;48.696;2.114;2022-11-04T08:38:56;98702.69;;;10.38;100.00
12536;BME280;6334;48.696;2.114;2022-11-04T08:41:27;98704.30;;;10.39;100.00
12536;BME280;6334;48.696;2.114;2022-11-04T08:43:57;98709.56;;;10.66;100.00
12536;BME280;6334;48.696;2.114;2022-11-04T08:46:28;98708.86;;;10.50;100.00
12536;BME280;6334;48.696;2.114;2022-11-04T08:48:58;98721.88;;;10.71;100.00
12536;BME280;6334;48.696;2.114;2022-11-04T08:51:29;98723.83;;;11.18;100.00
12536;BME280;6334;48.696;2.114;2022-11-04T08:53:59;98728.53;;;10.69;100.00
12536;BME280;6334;48.696;2.114;2022-11-04T08:56:31;98731.05;;;11.25;100.00
12536;BME280;6334;48.696;2.114;2022-11-04T08:59:00;98736.80;;;11.05;100.00
12536;BME280;6334;48.696;2.114;2022-11-04T09:01:31;98739.22;;;11.39;100.00
12536;BME280;6334;48.696;2.114;2022-11-04T09:04:00;98746.88;;;11.50;100.00
12536;BME280;6334;48.696;2.114;2022-11-04T09:06:34;98744.71;;;11.57;100.00
12536;BME280;6334;48.696;2.114;2022-11-04T09:09:01;98750.70;;;11.63;100.00
12536;BME280;6334;48.696;2.114;2022-11-04T09:11:32;98758.70;;;11.26;100.00
12536;BME280;6334;48.696;2.114;2022-11-04T09:14:02;98771.82;;;11.60;100.00
12536;BME280;6334;48.696;2.114;2022-11-04T09:16:33;98767.48;;;11.33;100.00
12536;BME280;6334;48.696;2.114;2022-11-04T09:19:03;98779.92;;;12.06;100.00
12536;BME280;6334;48.696;2.114;2022-11-04T09:21:33;98773.56;;;12.54;100.00
12536;BME280;6334;48.696;2.114;2022-11-04T09:24:04;98773.23;;;12.05;100.00
12536;BME280;6334;48.696;2.114;2022-11-04T09:26:34;98771.08;;;11.90;100.00
12536;BME280;6334;48.696;2.114;2022-11-04T09:29:05;98776.69;;;11.90;100.00
12536;BME280;6334;48.696;2.114;2022-11-04T09:31:35;98776.92;;;11.69;100.00
12536;BME280;6334;48.696;2.114;2022-11-04T09:34:07;98779.86;;;11.65;100.00
12536;BME280;6334;48.696;2.114;2022-11-04T09:36:37;98794.42;;;11.75;100.00
12536;BME280;6334;48.696;2.114;2022-11-04T09:39:13;98803.14;;;11.70;100.00
12536;BME280;6334;48.696;2.114;2022-11-04T09:44:27;98786.11;;;11.24;100.00
12536;BME280;6334;48.696;2.114;2022-11-04T09:46:57;98792.92;;;11.49;100.00
12536;BME280;6334;48.696;2.114;2022-11-04T09:49:31;98798.64;;;11.50;100.00
12536;BME280;6334;48.696;2.114;2022-11-04T09:52:00;98809.06;;;11.29;100.00
12536;BME280;6334;48.696;2.114;2022-11-04T09:57:12;98818.08;;;11.54;100.00
12536;BME280;6334;48.696;2.114;2022-11-04T09:59:40;98822.45;;;11.54;100.00
12536;BME280;6334;48.696;2.114;2022-11-04T10:07:44;98835.92;;;11.69;100.00
12536;BME280;6334;48.696;2.114;2022-11-04T10:10:42;98747.80;;;10.94;100.00
12536;BME280;6334;48.696;2.114;2022-11-04T10:18:48;98874.80;;;11.34;100.00
12536;BME280;6334;48.696;2.114;2022-11-04T10:27:08;98897.78;;;11.68;100.00
12536;BME280;6334;48.696;2.114;2022-11-04T10:29:40;98903.66;;;11.60;100.00
12536;BME280;6334;48.696;2.114;2022-11-04T10:32:13;98914.22;;;11.36;100.00
12536;BME280;6334;48.696;2.114;2022-11-04T10:37:32;98926.19;;;11.42;100.00
12536;BME280;6334;48.696;2.114;2022-11-04T10:40:19;98925.33;;;11.23;100.00
12536;BME280;6334;48.696;2.114;2022-11-04T10:42:46;98933.98;;;11.51;100.00
12536;BME280;6334;48.696;2.114;2022-11-04T10:45:16;98939.00;;;11.82;100.00
12536;BME280;6334;48.696;2.114;2022-11-04T10:48:30;98938.23;;;11.81;100.00
12536;BME280;6334;48.696;2.114;2022-11-04T10:50:35;98946.69;;;11.80;100.00
12536;BME280;6334;48.696;2.114;2022-11-04T10:53:11;98944.17;;;11.64;100.00
12536;BME280;6334;48.696;2.114;2022-11-04T10:56:15;98950.17;;;11.35;100.00
12536;BME280;6334;48.696;2.114;2022-11-04T10:58:49;98957.87;;;11.17;100.00
12536;BME280;6334;48.696;2.114;2022-11-04T11:01:29;98963.41;;;11.25;100.00
12536;BME280;6334;48.696;2.114;2022-11-04T11:03:58;98967.09;;;11.30;100.00
12536;BME280;6334;48.696;2.114;2022-11-04T11:06:29;98968.91;;;11.11;100.00
12536;BME280;6334;48.696;2.114;2022-11-04T11:09:00;98968.12;;;11.50;100.00
12536;BME280;6334;48.696;2.114;2022-11-04T11:11:43;98975.38;;;11.78;100.00
12536;BME280;6334;48.696;2.114;2022-11-04T11:14:19;98983.97;;;11.56;100.00
12536;BME280;6334;48.696;2.114;2022-11-04T11:16:48;98983.39;;;11.59;100.00
12536;BME280;6334;48.696;2.114;2022-11-04T11:19:19;98982.72;;;11.63;100.00
12536;BME280;6334;48.696;2.114;2022-11-04T11:21:53;98986.99;;;11.79;100.00
12536;BME280;6334;48.696;2.114;2022-11-04T11:24:26;98985.41;;;11.87;100.00
12536;BME280;6334;48.696;2.114;2022-11-04T11:26:57;98998.80;;;11.75;100.00
12536;BME280;6334;48.696;2.114;2022-11-04T11:29:30;99002.80;;;11.36;100.00
12536;BME280;6334;48.696;2.114;2022-11-04T11:32:30;98994.87;;;11.59;100.00
12536;BME280;6334;48.696;2.114;2022-11-04T11:34:56;98999.02;;;11.64;100.00
12536;BME280;6334;48.696;2.114;2022-11-04T11:37:30;99012.47;;;11.81;100.00
12536;BME280;6334;48.696;2.114;2022-11-04T11:40:01;99019.99;;;11.89;100.00
12536;BME280;6334;48.696;2.114;2022-11-04T11:42:31;99025.80;;;11.62;100.00
12536;BME280;6334;48.696;2.114;2022-11-04T11:45:02;99029.78;;;11.81;100.00
12536;BME280;6334;48.696;2.114;2022-11-04T11:47:35;99029.66;;;11.83;100.00
12536;BME280;6334;48.696;2.114;2022-11-04T11:52:45;99033.49;;;11.98;100.00
12536;BME280;6334;48.696;2.114;2022-11-04T11:55:20;99025.48;;;11.86;100.00
12536;BME280;6334;48.696;2.114;2022-11-04T11:58:07;99047.66;;;11.86;100.00
12536;BME280;6334;48.696;2.114;2022-11-04T12:00:34;99048.05;;;12.24;100.00
12536;BME280;6334;48.696;2.114;2022-11-04T12:03:13;99046.83;;;12.17;100.00
12536;BME280;6334;48.696;2.114;2022-11-04T12:06:02;99054.84;;;12.08;100.00
12536;BME280;6334;48.696;2.114;2022-11-04T12:13:52;99066.17;;;12.22;100.00
12536;BME280;6334;48.696;2.114;2022-11-04T12:22:23;99088.52;;;12.52;100.00
12536;BME280;6334;48.696;2.114;2022-11-04T12:27:46;99100.48;;;12.52;100.00
12536;BME280;6334;48.696;2.114;2022-11-04T12:30:13;99115.24;;;12.51;100.00
12536;BME280;6334;48.696;2.114;2022-11-04T12:36:04;99135.89;;;11.91;100.00
12536;BME280;6334;48.696;2.114;2022-11-04T12:43:36;99146.87;;;11.52;100.00
12536;BME280;6334;48.696;2.114;2022-11-04T12:52:18;99169.71;;;11.90;100.00
12536;BME280;6334;48.696;2.114;2022-11-04T12:55:00;99180.42;;;11.84;100.00
12536;BME280;6334;48.696;2.114;2022-11-04T13:02:47;99187.42;;;11.91;100.00
12536;BME280;6334;48.696;2.114;2022-11-04T13:05:25;99192.86;;;11.74;100.00
12536;BME280;6334;48.696;2.114;2022-11-04T13:13:08;99216.02;;;11.71;100.00
12536;BME280;6334;48.696;2.114;2022-11-04T13:15:43;99215.49;;;11.51;100.00
12536;BME280;6334;48.696;2.114;2022-11-04T13:18:09;99222.77;;;11.67;100.00
12536;BME280;6334;48.696;2.114;2022-11-04T13:20:43;99225.36;;;11.46;100.00
12536;BME280;6334;48.696;2.114;2022-11-04T13:23:19;99232.91;;;11.72;100.00
12536;BME280;6334;48.696;2.114;2022-11-04T13:25:48;99230.81;;;11.58;100.00
12536;BME280;6334;48.696;2.114;2022-11-04T13:28:19;99232.39;;;11.76;100.00
12536;BME280;6334;48.696;2.114;2022-11-04T13:31:16;99255.11;;;11.80;100.00
12536;BME280;6334;48.696;2.114;2022-11-04T13:36:41;99277.48;;;11.60;100.00
12536;BME280;6334;48.696;2.114;2022-11-04T13:39:18;99287.11;;;11.58;100.00
12536;BME280;6334;48.696;2.114;2022-11-04T13:44:39;99294.09;;;11.79;100.00
12536;BME280;6334;48.696;2.114;2022-11-04T13:47:16;99310.65;;;11.74;100.00
12536;BME280;6334;48.696;2.114;2022-11-04T13:49:45;99324.84;;;11.80;100.00
12536;BME280;6334;48.696;2.114;2022-11-04T13:52:12;99333.14;;;11.78;100.00
12536;BME280;6334;48.696;2.114;2022-11-04T13:57:24;99336.95;;;11.83;100.00
12536;BME280;6334;48.696;2.114;2022-11-04T14:00:07;99342.65;;;11.60;100.00
12536;BME280;6334;48.696;2.114;2022-11-04T14:02:41;99356.59;;;11.75;100.00
12536;BME280;6334;48.696;2.114;2022-11-04T14:18:54;99379.05;;;11.49;100.00
12536;BME280;6334;48.696;2.114;2022-11-04T14:21:25;99387.66;;;11.84;100.00
12536;BME280;6334;48.696;2.114;2022-11-04T14:23:55;99388.08;;;11.91;100.00
12536;BME280;6334;48.696;2.114;2022-11-04T14:26:27;99389.30;;;11.64;100.00
12536;BME280;6334;48.696;2.114;2022-11-04T14:31:43;99401.22;;;11.73;100.00
12536;BME280;6334;48.696;2.114;2022-11-04T14:34:25;99402.97;;;11.75;100.00
12536;BME280;6334;48.696;2.114;2022-11-04T14:36:59;99410.47;;;11.74;100.00
12536;BME280;6334;48.696;2.114;2022-11-04T14:39:37;99408.20;;;11.58;100.00
12536;BME280;6334;48.696;2.114;2022-11-04T14:42:05;99414.67;;;11.78;100.00
12536;BME280;6334;48.696;2.114;2022-11-04T14:47:27;99424.86;;;11.91;100.00
12536;BME280;6334;48.696;2.114;2022-11-04T14:50:20;99429.05;;;11.84;100.00
12536;BME280;6334;48.696;2.114;2022-11-04T14:52:57;99432.52;;;11.82;100.00
12536;BME280;6334;48.696;2.114;2022-11-04T14:55:28;99360.08;;;11.53;100.00
12536;BME280;6334;48.696;2.114;2022-11-04T14:58:12;99439.53;;;11.91;100.00
12536;BME280;6334;48.696;2.114;2022-11-04T15:03:22;99443.11;;;11.92;100.00
12536;BME280;6334;48.696;2.114;2022-11-04T15:05:47;99445.83;;;11.78;100.00
12536;BME280;6334;48.696;2.114;2022-11-04T15:11:11;99461.16;;;11.84;100.00
12536;BME280;6334;48.696;2.114;2022-11-04T15:16:25;99462.01;;;12.07;100.00
12536;BME280;6334;48.696;2.114;2022-11-04T15:18:55;99465.40;;;11.77;100.00
12536;BME280;6334;48.696;2.114;2022-11-04T15:21:24;99467.30;;;11.58;100.00
12536;BME280;6334;48.696;2.114;2022-11-04T15:23:55;99483.05;;;11.81;100.00
12536;BME280;6334;48.696;2.114;2022-11-04T15:26:29;99472.17;;;11.81;100.00
12536;BME280;6334;48.696;2.114;2022-11-04T15:28:59;99477.23;;;11.88;100.00
12536;BME280;6334;48.696;2.114;2022-11-04T15:31:31;99388.02;;;11.29;100.00
12536;BME280;6334;48.696;2.114;2022-11-04T15:34:00;99462.29;;;11.64;100.00
12536;BME280;6334;48.696;2.114;2022-11-04T15:36:34;99460.64;;;11.85;100.00
12536;BME280;6334;48.696;2.114;2022-11-04T15:39:04;99458.36;;;11.73;100.00
12536;BME280;6334;48.696;2.114;2022-11-04T15:41:32;99452.82;;;11.67;100.00
12536;BME280;6334;48.696;2.114;2022-11-04T15:44:22;99455.95;;;11.64;100.00
12536;BME280;6334;48.696;2.114;2022-11-04T15:46:54;99461.31;;;11.56;100.00
12536;BME280;6334;48.696;2.114;2022-11-04T15:49:25;99459.97;;;11.62;100.00